Time;durP1;ratioP1;P1;durP2;ratioP2;P2;SDS_P1;SDS_P2;PMS_P1;PMS_P2;Temp;Humidity;BMP_temperature;BMP_pressure;BME280_temperature;BME280_humidity;BME280_pressure;Samples;Min_cycle;Max_cycle;Signal;HPM_P1;HPM_P2
2023/08/05 00:01:36;;;;;;;6.00;3.92;;;;;;;;;;4992031;28;25067;-74
2023/08/05 00:04:02;;;;;;;10.15;4.65;;;;;;;;;;4988305;28;25157;-72
2023/08/05 00:06:28;;;;;;;6.95;4.97;;;;;;;;;;4994882;28;25062;-72
2023/08/05 00:08:54;;;;;;;5.85;3.90;;;;;;;;;;4987839;28;25159;-71
2023/08/05 00:11:20;;;;;;;4.60;3.80;;;;;;;;;;4991860;28;25065;-72
2023/08/05 00:13:46;;;;;;;8.23;4.20;;;;;;;;;;4997845;28;25064;-73
2023/08/05 00:16:14;;;;;;;10.68;4.93;;;;;;;;;;5002662;28;25075;-73
2023/08/05 00:18:40;;;;;;;5.88;4.25;;;;;;;;;;4998229;28;25102;-72
2023/08/05 00:21:05;;;;;;;7.25;4.68;;;;;;;;;;4989213;28;25098;-72
2023/08/05 00:23:31;;;;;;;7.63;4.38;;;;;;;;;;4984698;28;25078;-72
2023/08/05 00:25:57;;;;;;;9.48;5.10;;;;;;;;;;4995532;28;25059;-72
2023/08/05 00:28:23;;;;;;;5.85;4.60;;;;;;;;;;4995944;28;25087;-72
2023/08/05 00:30:49;;;;;;;8.75;4.40;;;;;;;;;;4980967;28;25078;-72
2023/08/05 00:33:15;;;;;;;9.07;4.72;;;;;;;;;;4991311;28;25089;-73
2023/08/05 00:35:41;;;;;;;8.45;4.32;;;;;;;;;;4993101;28;25105;-73
2023/08/05 00:38:07;;;;;;;7.43;4.63;;;;;;;;;;4987299;28;25128;-72
2023/08/05 00:40:33;;;;;;;6.55;3.38;;;;;;;;;;5003764;28;25060;-72
2023/08/05 00:42:59;;;;;;;6.30;3.80;;;;;;;;;;5007339;28;25079;-71
2023/08/05 00:45:25;;;;;;;9.77;4.50;;;;;;;;;;4996768;28;25080;-72
2023/08/05 00:47:52;;;;;;;6.75;4.35;;;;;;;;;;4998394;28;25065;-72
2023/08/05 00:50:18;;;;;;;12.43;5.43;;;;;;;;;;5008192;28;25048;-73
2023/08/05 00:52:44;;;;;;;11.00;4.55;;;;;;;;;;5012630;28;25062;-72
2023/08/05 00:55:10;;;;;;;5.22;4.25;;;;;;;;;;4999943;28;30401;-73
2023/08/05 00:57:36;;;;;;;4.50;3.75;;;;;;;;;;4996593;28;25078;-72
2023/08/05 01:00:03;;;;;;;6.72;3.92;;;;;;;;;;5003715;28;25109;-72
2023/08/05 01:02:29;;;;;;;12.15;4.93;;;;;;;;;;5000051;28;25056;-72
2023/08/05 01:04:55;;;;;;;4.45;3.88;;;;;;;;;;4990922;28;25147;-72
2023/08/05 01:07:22;;;;;;;8.68;4.22;;;;;;;;;;5000000;28;25097;-73
2023/08/05 01:09:49;;;;;;;7.43;4.43;;;;;;;;;;4990541;28;25149;-73
2023/08/05 01:12:14;;;;;;;9.23;4.97;;;;;;;;;;4987034;28;25092;-72
2023/08/05 01:14:41;;;;;;;8.30;4.13;;;;;;;;;;5002944;28;25113;-71
2023/08/05 01:17:07;;;;;;;8.68;4.00;;;;;;;;;;4997120;28;25055;-74
2023/08/05 01:19:34;;;;;;;9.40;4.32;;;;;;;;;;4995069;28;25147;-73
2023/08/05 01:22:07;;;;;;;8.00;5.00;;;;;;;;;;4988008;28;25129;-72
2023/08/05 01:24:43;;;;;;;11.80;4.38;;;;;;;;;;4992950;28;25062;-72
2023/08/05 01:27:09;;;;;;;7.85;4.22;;;;;;;;;;4995622;28;25171;-72
2023/08/05 01:29:36;;;;;;;7.70;4.20;;;;;;;;;;5000948;28;25155;-72
2023/08/05 01:32:02;;;;;;;7.32;4.18;;;;;;;;;;4997056;28;25068;-73
2023/08/05 01:34:29;;;;;;;7.28;4.68;;;;;;;;;;5000671;28;25113;-72
2023/08/05 01:36:55;;;;;;;5.43;4.28;;;;;;;;;;5003071;28;25054;-71
2023/08/05 01:39:21;;;;;;;6.82;4.05;;;;;;;;;;4987063;28;25172;-72
2023/08/05 01:41:47;;;;;;;9.20;4.22;;;;;;;;;;4998768;28;25056;-72
2023/08/05 01:44:13;;;;;;;7.30;4.40;;;;;;;;;;5000851;28;25051;-73
2023/08/05 01:46:39;;;;;;;7.72;4.43;;;;;;;;;;4991978;28;25075;-72
2023/08/05 01:49:05;;;;;;;4.40;3.97;;;;;;;;;;4998475;28;25138;-71
2023/08/05 01:51:31;;;;;;;9.70;4.47;;;;;;;;;;4999900;28;25076;-72
2023/08/05 01:53:57;;;;;;;8.18;4.47;;;;;;;;;;4999803;28;25106;-72
2023/08/05 01:56:23;;;;;;;6.22;4.22;;;;;;;;;;4988513;28;25058;-71
2023/08/05 01:58:49;;;;;;;10.50;4.85;;;;;;;;;;5000247;28;25083;-72
2023/08/05 02:01:15;;;;;;;7.80;4.90;;;;;;;;;;4989608;28;25182;-71
2023/08/05 02:03:41;;;;;;;12.68;4.78;;;;;;;;;;4999184;28;25093;-71
2023/08/05 02:06:07;;;;;;;8.65;5.63;;;;;;;;;;4980522;28;25107;-71
2023/08/05 02:08:33;;;;;;;7.35;4.38;;;;;;;;;;4993564;28;25073;-71
2023/08/05 02:10:59;;;;;;;8.85;4.40;;;;;;;;;;4986488;28;25103;-72
2023/08/05 02:13:25;;;;;;;8.70;4.05;;;;;;;;;;4993355;28;25067;-72
2023/08/05 02:15:51;;;;;;;7.57;4.07;;;;;;;;;;4979771;28;25042;-71
2023/08/05 02:18:17;;;;;;;8.65;4.53;;;;;;;;;;4993940;28;25145;-72
2023/08/05 02:20:43;;;;;;;8.10;4.72;;;;;;;;;;4987434;28;25063;-72
2023/08/05 02:23:09;;;;;;;7.90;4.68;;;;;;;;;;4992020;28;25052;-72
2023/08/05 02:25:34;;;;;;;10.25;5.43;;;;;;;;;;5000734;28;25062;-72
2023/08/05 02:28:01;;;;;;;8.20;5.40;;;;;;;;;;5000896;28;25159;-72
2023/08/05 02:30:26;;;;;;;6.72;4.97;;;;;;;;;;4996499;28;25081;-72
2023/08/05 02:32:52;;;;;;;5.47;4.57;;;;;;;;;;4986029;28;25071;-73
2023/08/05 02:35:18;;;;;;;10.35;5.38;;;;;;;;;;4993087;28;25051;-73
2023/08/05 02:37:44;;;;;;;10.45;5.70;;;;;;;;;;4994544;28;25072;-72
2023/08/05 02:40:10;;;;;;;8.20;5.15;;;;;;;;;;4995754;28;25067;-72
2023/08/05 02:42:36;;;;;;;8.80;5.07;;;;;;;;;;5008342;28;25079;-72
2023/08/05 02:45:03;;;;;;;9.52;5.47;;;;;;;;;;5010900;28;25073;-73
2023/08/05 02:47:29;;;;;;;6.13;4.93;;;;;;;;;;5001407;28;25073;-72
2023/08/05 02:49:55;;;;;;;9.00;5.10;;;;;;;;;;4987731;28;25062;-72
2023/08/05 02:52:21;;;;;;;9.23;6.07;;;;;;;;;;4990189;28;25105;-72
2023/08/05 02:54:47;;;;;;;9.27;5.40;;;;;;;;;;4988774;28;25088;-71
2023/08/05 02:57:13;;;;;;;10.07;5.50;;;;;;;;;;4996471;28;25085;-73
2023/08/05 02:59:39;;;;;;;12.45;5.47;;;;;;;;;;4991165;28;25060;-74
2023/08/05 03:02:05;;;;;;;10.55;5.57;;;;;;;;;;4989130;28;25049;-74
2023/08/05 03:04:31;;;;;;;14.55;6.35;;;;;;;;;;5001561;28;25157;-74
2023/08/05 03:06:57;;;;;;;7.78;5.82;;;;;;;;;;4983850;28;25074;-73
2023/08/05 03:09:23;;;;;;;9.38;5.53;;;;;;;;;;4992476;28;25162;-73
2023/08/05 03:11:49;;;;;;;7.97;5.75;;;;;;;;;;4990545;28;25069;-74
2023/08/05 03:14:15;;;;;;;11.13;6.90;;;;;;;;;;4982826;28;25085;-73
2023/08/05 03:16:41;;;;;;;10.18;6.75;;;;;;;;;;4991684;28;25144;-74
2023/08/05 03:19:07;;;;;;;12.15;6.28;;;;;;;;;;4982714;28;25088;-75
2023/08/05 03:21:33;;;;;;;10.60;6.32;;;;;;;;;;4987704;28;25117;-74
2023/08/05 03:23:59;;;;;;;15.65;7.95;;;;;;;;;;4989799;28;25092;-74
2023/08/05 03:26:25;;;;;;;12.98;7.00;;;;;;;;;;4989250;28;25120;-74
2023/08/05 03:28:51;;;;;;;13.50;7.20;;;;;;;;;;4990165;28;25088;-74
2023/08/05 03:31:17;;;;;;;13.18;6.97;;;;;;;;;;5003293;28;25151;-74
2023/08/05 03:33:43;;;;;;;14.60;8.40;;;;;;;;;;4988540;28;25063;-74
2023/08/05 03:36:09;;;;;;;14.90;7.78;;;;;;;;;;4990157;28;25173;-73
2023/08/05 03:38:35;;;;;;;10.75;7.28;;;;;;;;;;4994925;28;25050;-74
2023/08/05 03:41:05;;;;;;;16.60;8.75;;;;;;;;;;4988385;28;25139;-74
2023/08/05 03:43:31;;;;;;;10.55;8.27;;;;;;;;;;4988847;28;25087;-73
2023/08/05 03:45:57;;;;;;;16.95;9.07;;;;;;;;;;4991659;28;25050;-73
2023/08/05 03:48:23;;;;;;;13.05;8.90;;;;;;;;;;5000615;28;25066;-74
2023/08/05 03:50:49;;;;;;;12.88;8.82;;;;;;;;;;4986986;28;25084;-73
2023/08/05 03:53:15;;;;;;;13.23;8.75;;;;;;;;;;4987346;28;25139;-73
2023/08/05 03:55:41;;;;;;;13.05;8.70;;;;;;;;;;4987408;28;25052;-75
2023/08/05 03:58:07;;;;;;;14.35;9.25;;;;;;;;;;4977303;28;25077;-75
2023/08/05 04:00:34;;;;;;;14.18;9.13;;;;;;;;;;4989773;28;25084;-74
2023/08/05 04:03:00;;;;;;;16.27;8.63;;;;;;;;;;4989868;28;25062;-73
2023/08/05 04:05:26;;;;;;;12.40;8.90;;;;;;;;;;5003034;28;25071;-73
2023/08/05 04:07:53;;;;;;;12.93;8.43;;;;;;;;;;4999103;28;25119;-74
2023/08/05 04:10:21;;;;;;;12.20;8.00;;;;;;;;;;5008873;28;25135;-74
2023/08/05 04:12:47;;;;;;;17.95;8.85;;;;;;;;;;4995882;28;25126;-74
2023/08/05 04:15:14;;;;;;;10.77;7.95;;;;;;;;;;5000555;28;25136;-74
2023/08/05 04:17:42;;;;;;;9.43;7.45;;;;;;;;;;4984338;28;25165;-73
2023/08/05 04:20:08;;;;;;;11.45;7.35;;;;;;;;;;4989453;28;25106;-74
2023/08/05 04:22:35;;;;;;;19.05;8.40;;;;;;;;;;4997977;28;25074;-75
2023/08/05 04:25:01;;;;;;;10.82;7.70;;;;;;;;;;4992411;28;25118;-72
2023/08/05 04:27:27;;;;;;;16.83;9.55;;;;;;;;;;5000033;28;25103;-72
2023/08/05 04:29:53;;;;;;;12.18;8.63;;;;;;;;;;4994524;28;25087;-74
2023/08/05 04:32:20;;;;;;;12.25;8.10;;;;;;;;;;4990383;28;25049;-73
2023/08/05 04:34:46;;;;;;;20.73;8.75;;;;;;;;;;4980693;28;25089;-72
2023/08/05 04:37:19;;;;;;;12.40;8.73;;;;;;;;;;4982230;28;25081;-73
2023/08/05 04:39:45;;;;;;;14.75;8.57;;;;;;;;;;4988984;28;25066;-73
2023/08/05 04:42:11;;;;;;;14.07;8.57;;;;;;;;;;4989267;28;25053;-73
2023/08/05 04:44:40;;;;;;;15.00;7.75;;;;;;;;;;5002088;28;25117;-73
2023/08/05 04:47:07;;;;;;;9.23;7.70;;;;;;;;;;4996333;28;25138;-73
2023/08/05 04:49:33;;;;;;;12.07;7.93;;;;;;;;;;4997394;28;25164;-74
2023/08/05 04:51:59;;;;;;;13.43;8.07;;;;;;;;;;4994836;28;25158;-73
2023/08/05 04:54:25;;;;;;;17.77;8.55;;;;;;;;;;4984859;28;25164;-73
2023/08/05 04:56:51;;;;;;;16.02;8.10;;;;;;;;;;5001834;28;25077;-72
2023/08/05 04:59:17;;;;;;;11.48;7.00;;;;;;;;;;4994570;28;25049;-74
2023/08/05 05:01:43;;;;;;;9.65;7.03;;;;;;;;;;4993718;28;25054;-73
2023/08/05 05:04:09;;;;;;;15.25;8.32;;;;;;;;;;4995504;28;25072;-75
2023/08/05 05:06:35;;;;;;;12.05;7.25;;;;;;;;;;4992287;28;25130;-74
2023/08/05 05:09:00;;;;;;;18.30;8.13;;;;;;;;;;4988304;28;25061;-74
2023/08/05 05:11:26;;;;;;;13.18;9.48;;;;;;;;;;4987318;28;25100;-73
2023/08/05 05:13:52;;;;;;;10.90;7.60;;;;;;;;;;4997690;28;25066;-73
2023/08/05 05:16:19;;;;;;;15.88;8.48;;;;;;;;;;4990535;28;25057;-73
2023/08/05 05:18:45;;;;;;;9.23;6.80;;;;;;;;;;4993780;28;25093;-72
2023/08/05 05:21:11;;;;;;;12.68;7.00;;;;;;;;;;4983693;28;25089;-73
2023/08/05 05:23:38;;;;;;;14.73;8.13;;;;;;;;;;4999295;28;25067;-74
2023/08/05 05:26:04;;;;;;;13.55;7.25;;;;;;;;;;4986340;28;25054;-73
2023/08/05 05:28:30;;;;;;;12.65;7.53;;;;;;;;;;5003865;28;25097;-72
2023/08/05 05:30:58;;;;;;;19.15;7.75;;;;;;;;;;4995545;28;25058;-73
2023/08/05 05:33:24;;;;;;;14.77;6.80;;;;;;;;;;4988176;28;25095;-72
2023/08/05 05:35:50;;;;;;;14.88;7.45;;;;;;;;;;5001177;28;25087;-73
2023/08/05 05:38:16;;;;;;;9.32;6.45;;;;;;;;;;4985662;28;25067;-73
2023/08/05 05:40:42;;;;;;;10.00;6.57;;;;;;;;;;4996535;28;25080;-73
2023/08/05 05:43:08;;;;;;;14.45;6.63;;;;;;;;;;4999937;28;25162;-72
2023/08/05 05:45:39;;;;;;;13.23;6.72;;;;;;;;;;4988969;28;25051;-73
2023/08/05 05:48:06;;;;;;;13.30;6.43;;;;;;;;;;4997739;28;25046;-73
2023/08/05 05:50:32;;;;;;;9.38;6.30;;;;;;;;;;4994224;28;25112;-74
2023/08/05 05:52:57;;;;;;;8.07;6.43;;;;;;;;;;5002181;28;25118;-75
2023/08/05 05:55:24;;;;;;;8.70;6.10;;;;;;;;;;4989172;28;25137;-74
2023/08/05 05:57:49;;;;;;;10.60;6.35;;;;;;;;;;4994795;28;25144;-73
2023/08/05 06:00:15;;;;;;;11.25;6.97;;;;;;;;;;4996512;28;25067;-75
2023/08/05 06:02:41;;;;;;;12.82;6.88;;;;;;;;;;4996148;28;25161;-74
2023/08/05 06:05:08;;;;;;;10.85;6.47;;;;;;;;;;4993092;28;25087;-74
2023/08/05 06:07:34;;;;;;;8.82;7.32;;;;;;;;;;4991112;28;25076;-76
2023/08/05 06:10:01;;;;;;;10.90;7.40;;;;;;;;;;4998605;28;25133;-74
2023/08/05 06:12:32;;;;;;;12.68;9.10;;;;;;;;;;4984768;28;25088;-74
2023/08/05 06:14:59;;;;;;;15.82;8.07;;;;;;;;;;4995407;28;25054;-74
2023/08/05 06:17:25;;;;;;;14.07;9.52;;;;;;;;;;4996529;28;25163;-73
2023/08/05 06:19:51;;;;;;;11.45;8.95;;;;;;;;;;4987531;28;25074;-72
2023/08/05 06:22:17;;;;;;;13.50;9.73;;;;;;;;;;4994116;28;25055;-75
2023/08/05 06:24:43;;;;;;;16.33;10.52;;;;;;;;;;5000148;28;25144;-75
2023/08/05 06:27:09;;;;;;;15.27;10.32;;;;;;;;;;5000988;28;25054;-74
2023/08/05 06:29:35;;;;;;;22.02;11.10;;;;;;;;;;4994039;28;25147;-73
2023/08/05 06:32:01;;;;;;;17.23;11.23;;;;;;;;;;5019108;28;25152;-74
2023/08/05 06:34:27;;;;;;;18.42;10.55;;;;;;;;;;4997889;28;25078;-74
2023/08/05 06:36:53;;;;;;;17.33;11.07;;;;;;;;;;4987398;28;25076;-74
2023/08/05 06:39:19;;;;;;;16.17;11.32;;;;;;;;;;4996491;28;25138;-75
2023/08/05 06:41:45;;;;;;;18.35;11.18;;;;;;;;;;4992345;28;25074;-74
2023/08/05 06:44:11;;;;;;;15.45;10.73;;;;;;;;;;5011472;28;25067;-74
2023/08/05 06:46:39;;;;;;;17.92;11.15;;;;;;;;;;5003906;28;25478;-73
2023/08/05 06:49:05;;;;;;;16.20;11.30;;;;;;;;;;5004443;28;25088;-75
2023/08/05 06:51:32;;;;;;;16.17;11.02;;;;;;;;;;4998137;28;25061;-75
2023/08/05 06:53:58;;;;;;;15.30;11.30;;;;;;;;;;5023378;28;25099;-75
2023/08/05 06:56:24;;;;;;;13.43;10.05;;;;;;;;;;4995576;28;25077;-74
2023/08/05 06:58:50;;;;;;;17.10;10.80;;;;;;;;;;4997502;28;25148;-75
2023/08/05 07:01:16;;;;;;;12.63;10.18;;;;;;;;;;4990620;28;25056;-76
2023/08/05 07:03:45;;;;;;;14.30;9.38;;;;;;;;;;4995461;28;25149;-77
2023/08/05 07:06:11;;;;;;;17.17;10.55;;;;;;;;;;4988095;28;25065;-73
2023/08/05 07:08:37;;;;;;;12.27;8.73;;;;;;;;;;5000074;28;25106;-75
2023/08/05 07:11:03;;;;;;;11.18;8.20;;;;;;;;;;4988665;28;25107;-74
2023/08/05 07:13:29;;;;;;;15.18;8.95;;;;;;;;;;4991762;28;25063;-73
2023/08/05 07:15:59;;;;;;;10.57;7.97;;;;;;;;;;4992543;28;25147;-73
2023/08/05 07:18:25;;;;;;;15.60;8.50;;;;;;;;;;4982142;28;25155;-75
2023/08/05 07:20:51;;;;;;;12.68;9.25;;;;;;;;;;4992662;28;25059;-73
2023/08/05 07:23:17;;;;;;;12.45;8.35;;;;;;;;;;4994796;28;25088;-74
2023/08/05 07:25:43;;;;;;;14.98;8.77;;;;;;;;;;4994152;28;25100;-77
2023/08/05 07:28:09;;;;;;;16.88;9.05;;;;;;;;;;4994913;28;25066;-75
2023/08/05 07:30:35;;;;;;;14.10;9.40;;;;;;;;;;4994025;28;25155;-75
2023/08/05 07:33:04;;;;;;;12.80;9.05;;;;;;;;;;4993550;28;25108;-74
2023/08/05 07:35:30;;;;;;;11.50;7.72;;;;;;;;;;4989280;28;25120;-75
2023/08/05 07:37:56;;;;;;;14.50;9.52;;;;;;;;;;4990335;28;25088;-74
2023/08/05 07:40:23;;;;;;;11.23;9.20;;;;;;;;;;4981761;28;25061;-74
2023/08/05 07:42:50;;;;;;;11.73;10.02;;;;;;;;;;4996041;28;25169;-74
2023/08/05 07:45:21;;;;;;;14.23;9.60;;;;;;;;;;4998622;28;25069;-75
2023/08/05 07:47:47;;;;;;;11.55;9.05;;;;;;;;;;4993982;28;25061;-74
2023/08/05 07:50:21;;;;;;;13.82;9.55;;;;;;;;;;4999176;28;25056;-71
2023/08/05 07:52:47;;;;;;;16.85;10.02;;;;;;;;;;4989577;28;25182;-72
2023/08/05 07:55:13;;;;;;;15.88;9.82;;;;;;;;;;4993405;28;25094;-73
2023/08/05 07:57:40;;;;;;;10.57;7.97;;;;;;;;;;4991807;28;25062;-72
2023/08/05 08:00:08;;;;;;;8.75;7.18;;;;;;;;;;4990590;28;25070;-71
2023/08/05 08:02:34;;;;;;;11.00;7.50;;;;;;;;;;4984050;28;25052;-72
2023/08/05 08:05:04;;;;;;;10.38;7.10;;;;;;;;;;4985863;28;25057;-72
2023/08/05 08:07:30;;;;;;;9.90;6.78;;;;;;;;;;4980399;28;25165;-72
2023/08/05 08:09:56;;;;;;;15.20;8.38;;;;;;;;;;4989683;28;25090;-70
2023/08/05 08:12:22;;;;;;;10.30;6.65;;;;;;;;;;4985715;28;25040;-71
2023/08/05 08:14:48;;;;;;;11.90;6.32;;;;;;;;;;4981222;28;25069;-71
2023/08/05 08:17:16;;;;;;;9.75;5.80;;;;;;;;;;4982081;28;25077;-72
2023/08/05 08:19:42;;;;;;;7.95;6.57;;;;;;;;;;4992236;28;25141;-71
2023/08/05 08:22:08;;;;;;;8.45;7.15;;;;;;;;;;4985431;28;25065;-71
2023/08/05 08:24:34;;;;;;;8.10;5.95;;;;;;;;;;4989707;28;25133;-71
2023/08/05 08:27:00;;;;;;;12.23;6.93;;;;;;;;;;4994074;28;25096;-71
2023/08/05 08:29:26;;;;;;;11.50;5.93;;;;;;;;;;4988303;28;25120;-72
2023/08/05 08:31:52;;;;;;;10.18;6.68;;;;;;;;;;4993696;28;25132;-73
2023/08/05 08:34:18;;;;;;;9.05;6.32;;;;;;;;;;5001940;28;25092;-72
2023/08/05 08:36:44;;;;;;;9.30;5.55;;;;;;;;;;4994355;28;25086;-72
2023/08/05 08:39:10;;;;;;;10.77;6.78;;;;;;;;;;5000882;28;25081;-73
2023/08/05 08:41:41;;;;;;;11.60;7.05;;;;;;;;;;4994504;28;25079;-71
2023/08/05 08:44:08;;;;;;;12.10;7.20;;;;;;;;;;5000384;28;25060;-71
2023/08/05 08:46:35;;;;;;;12.25;7.57;;;;;;;;;;4997359;28;25064;-72
2023/08/05 08:49:01;;;;;;;10.88;6.55;;;;;;;;;;4998380;28;25072;-73
2023/08/05 08:51:27;;;;;;;12.68;7.78;;;;;;;;;;4998295;28;25066;-72
2023/08/05 08:53:53;;;;;;;12.45;8.02;;;;;;;;;;4995393;28;25078;-72
2023/08/05 08:56:19;;;;;;;10.07;7.85;;;;;;;;;;4993779;28;25060;-72
2023/08/05 08:58:45;;;;;;;9.77;7.45;;;;;;;;;;5007061;28;25071;-71
2023/08/05 09:01:13;;;;;;;13.13;8.00;;;;;;;;;;4997851;28;25076;-72
2023/08/05 09:03:40;;;;;;;13.88;7.68;;;;;;;;;;5000027;28;25068;-73
2023/08/05 09:06:06;;;;;;;14.65;9.00;;;;;;;;;;5000030;28;25068;-72
2023/08/05 09:08:33;;;;;;;12.35;8.15;;;;;;;;;;4996073;28;25065;-73
2023/08/05 09:11:00;;;;;;;13.80;8.38;;;;;;;;;;4995138;28;25106;-73
2023/08/05 09:13:26;;;;;;;12.38;7.30;;;;;;;;;;4996789;28;25049;-72
2023/08/05 09:15:54;;;;;;;12.18;7.93;;;;;;;;;;4996169;28;25060;-71
2023/08/05 09:18:20;;;;;;;9.15;6.60;;;;;;;;;;4996591;28;25077;-72
2023/08/05 09:20:49;;;;;;;10.23;6.78;;;;;;;;;;4987793;28;25071;-72
2023/08/05 09:23:15;;;;;;;12.27;7.43;;;;;;;;;;4993706;28;25107;-72
2023/08/05 09:25:42;;;;;;;12.10;7.32;;;;;;;;;;4999711;28;25080;-72
2023/08/05 09:28:09;;;;;;;12.55;6.20;;;;;;;;;;4991526;28;25148;-73
2023/08/05 09:30:35;;;;;;;10.15;6.15;;;;;;;;;;4995281;28;25072;-71
2023/08/05 09:33:01;;;;;;;10.38;5.50;;;;;;;;;;5004024;28;25144;-73
2023/08/05 09:35:27;;;;;;;10.02;5.65;;;;;;;;;;4991367;28;25077;-72
2023/08/05 09:37:54;;;;;;;9.40;5.18;;;;;;;;;;4983928;28;25048;-72
2023/08/05 09:40:28;;;;;;;8.88;5.05;;;;;;;;;;4992887;28;25164;-71
2023/08/05 09:42:59;;;;;;;6.38;4.47;;;;;;;;;;5007791;28;25060;-74
2023/08/05 09:45:27;;;;;;;8.50;4.95;;;;;;;;;;5006614;28;25057;-74
2023/08/05 09:48:03;;;;;;;6.70;4.80;;;;;;;;;;4993027;28;25059;-73
2023/08/05 09:50:30;;;;;;;12.18;5.93;;;;;;;;;;5000325;28;25133;-74
2023/08/05 09:52:59;;;;;;;9.32;4.32;;;;;;;;;;4987350;28;25063;-74
2023/08/05 09:55:26;;;;;;;8.52;5.03;;;;;;;;;;4995923;28;25103;-76
2023/08/05 09:57:53;;;;;;;8.95;5.32;;;;;;;;;;4995018;28;25080;-76
2023/08/05 10:00:19;;;;;;;8.75;4.57;;;;;;;;;;4982453;28;25066;-74
2023/08/05 10:02:46;;;;;;;8.18;4.60;;;;;;;;;;4988452;28;25070;-75
2023/08/05 10:05:12;;;;;;;8.52;4.50;;;;;;;;;;4997944;28;25140;-74
2023/08/05 10:07:42;;;;;;;7.65;4.45;;;;;;;;;;4990370;28;25104;-75
2023/08/05 10:10:09;;;;;;;5.75;3.70;;;;;;;;;;5004427;28;25079;-76
2023/08/05 10:12:38;;;;;;;3.95;2.95;;;;;;;;;;4992757;28;25052;-75
2023/08/05 10:15:05;;;;;;;6.32;3.55;;;;;;;;;;4987531;28;25049;-73
2023/08/05 10:17:31;;;;;;;8.20;2.95;;;;;;;;;;4989576;28;25096;-75
2023/08/05 10:19:57;;;;;;;4.80;3.05;;;;;;;;;;4997312;28;25123;-74
2023/08/05 10:22:23;;;;;;;2.95;2.63;;;;;;;;;;4996828;28;25059;-75
2023/08/05 10:24:50;;;;;;;3.85;2.63;;;;;;;;;;5001528;28;25166;-75
2023/08/05 10:27:16;;;;;;;5.25;2.38;;;;;;;;;;4996198;28;25080;-76
2023/08/05 10:29:52;;;;;;;6.05;2.47;;;;;;;;;;4990817;28;25111;-74
2023/08/05 10:32:27;;;;;;;5.63;2.40;;;;;;;;;;5000651;28;25059;-75
2023/08/05 10:35:32;;;;;;;9.05;2.55;;;;;;;;;;5011927;28;25093;-74
2023/08/05 10:38:08;;;;;;;4.70;2.72;;;;;;;;;;4970741;28;25047;-76
2023/08/05 10:40:38;;;;;;;5.22;2.58;;;;;;;;;;4969099;28;25069;-76
2023/08/05 10:43:05;;;;;;;3.30;2.42;;;;;;;;;;4973085;28;25073;-74
2023/08/05 10:45:32;;;;;;;7.60;2.75;;;;;;;;;;4991982;28;25047;-74
2023/08/05 10:47:58;;;;;;;4.32;2.42;;;;;;;;;;4985007;28;25060;-75
2023/08/05 10:50:24;;;;;;;6.32;2.85;;;;;;;;;;4994223;28;25146;-74
2023/08/05 10:52:51;;;;;;;2.75;1.88;;;;;;;;;;5010002;28;25051;-74
2023/08/05 10:55:27;;;;;;;7.93;2.42;;;;;;;;;;4994294;28;25082;-73
2023/08/05 10:57:54;;;;;;;6.72;2.10;;;;;;;;;;4998457;28;25058;-75
2023/08/05 11:00:21;;;;;;;4.20;2.60;;;;;;;;;;5000332;28;25151;-74
2023/08/05 11:02:49;;;;;;;8.30;2.40;;;;;;;;;;4986668;28;25140;-74
2023/08/05 11:05:15;;;;;;;5.90;2.58;;;;;;;;;;5005925;28;25067;-73
2023/08/05 11:07:42;;;;;;;4.10;2.30;;;;;;;;;;5022106;28;25070;-75
2023/08/05 11:10:09;;;;;;;7.90;2.67;;;;;;;;;;5006655;28;25061;-73
2023/08/05 11:12:35;;;;;;;6.60;2.75;;;;;;;;;;5001161;28;25094;-75
2023/08/05 11:15:01;;;;;;;9.40;2.70;;;;;;;;;;4992416;28;25102;-74
2023/08/05 11:17:27;;;;;;;5.22;2.50;;;;;;;;;;4985972;28;25091;-76
2023/08/05 11:19:56;;;;;;;4.10;2.50;;;;;;;;;;4985986;28;25122;-75
2023/08/05 11:22:29;;;;;;;4.28;2.30;;;;;;;;;;4989965;28;25184;-73
2023/08/05 11:24:59;;;;;;;8.20;3.13;;;;;;;;;;4994628;28;25094;-73
2023/08/05 11:27:33;;;;;;;6.03;3.22;;;;;;;;;;4989247;28;25063;-75
2023/08/05 11:29:59;;;;;;;8.43;2.95;;;;;;;;;;5004356;28;25053;-75
2023/08/05 11:32:25;;;;;;;7.30;3.25;;;;;;;;;;5000106;28;25045;-74
2023/08/05 11:35:00;;;;;;;4.43;3.30;;;;;;;;;;4991973;28;25105;-73
2023/08/05 11:37:26;;;;;;;7.45;3.03;;;;;;;;;;4989561;28;25122;-77
2023/08/05 11:40:00;;;;;;;8.05;3.00;;;;;;;;;;4990100;28;25128;-71
2023/08/05 11:42:26;;;;;;;4.57;3.00;;;;;;;;;;5000079;28;25065;-72
2023/08/05 11:44:52;;;;;;;7.03;3.38;;;;;;;;;;4993506;28;25059;-71
2023/08/05 11:47:18;;;;;;;7.50;3.42;;;;;;;;;;4991556;28;25061;-72
2023/08/05 11:49:51;;;;;;;6.57;2.65;;;;;;;;;;4988477;28;25058;-73
2023/08/05 11:52:17;;;;;;;4.53;3.00;;;;;;;;;;4987972;28;25071;-72
2023/08/05 11:54:47;;;;;;;7.85;3.47;;;;;;;;;;4985060;28;25092;-72
2023/08/05 11:57:20;;;;;;;10.45;3.88;;;;;;;;;;4988441;28;25051;-72
2023/08/05 11:59:47;;;;;;;7.45;3.20;;;;;;;;;;4978982;28;25064;-71
2023/08/05 12:02:14;;;;;;;8.38;3.95;;;;;;;;;;4991260;28;25070;-72
2023/08/05 12:04:50;;;;;;;10.80;4.35;;;;;;;;;;4995116;28;24933;-72
2023/08/05 12:07:20;;;;;;;6.63;3.88;;;;;;;;;;5001764;28;25150;-72
2023/08/05 12:09:45;;;;;;;8.38;4.07;;;;;;;;;;4994724;28;25086;-72
2023/08/05 12:12:12;;;;;;;7.68;3.97;;;;;;;;;;4996007;28;25146;-72
2023/08/05 12:14:38;;;;;;;6.07;4.10;;;;;;;;;;4986778;28;25112;-72
2023/08/05 12:17:04;;;;;;;7.95;4.35;;;;;;;;;;4992061;28;25099;-73
2023/08/05 12:19:30;;;;;;;6.00;4.10;;;;;;;;;;5001713;28;25070;-73
2023/08/05 12:21:56;;;;;;;9.27;4.78;;;;;;;;;;4997331;28;25083;-72
2023/08/05 12:24:22;;;;;;;9.40;4.95;;;;;;;;;;4987021;28;25068;-72
2023/08/05 12:26:48;;;;;;;9.25;4.72;;;;;;;;;;4990494;28;25069;-70
2023/08/05 12:29:14;;;;;;;9.50;5.30;;;;;;;;;;4994205;28;25073;-72
2023/08/05 12:31:40;;;;;;;7.15;4.90;;;;;;;;;;4986174;28;25059;-72
2023/08/05 12:34:06;;;;;;;9.57;5.15;;;;;;;;;;4985607;28;25062;-71
2023/08/05 12:36:32;;;;;;;8.80;5.95;;;;;;;;;;5004687;28;25084;-72
2023/08/05 12:38:58;;;;;;;9.18;4.90;;;;;;;;;;5001512;28;25156;-72
2023/08/05 12:41:24;;;;;;;7.68;5.45;;;;;;;;;;5003639;28;25078;-71
2023/08/05 12:43:50;;;;;;;9.13;5.00;;;;;;;;;;4998482;28;25060;-71
2023/08/05 12:46:16;;;;;;;7.45;4.72;;;;;;;;;;4997487;28;25079;-71
2023/08/05 12:48:43;;;;;;;8.77;4.35;;;;;;;;;;5000545;28;25112;-71
2023/08/05 12:51:09;;;;;;;6.90;4.55;;;;;;;;;;5004330;28;25095;-72
2023/08/05 12:53:35;;;;;;;10.13;4.70;;;;;;;;;;5004599;28;25102;-72
2023/08/05 12:56:01;;;;;;;8.50;4.63;;;;;;;;;;4987405;28;25065;-72
2023/08/05 12:58:27;;;;;;;7.32;4.43;;;;;;;;;;5016543;28;25063;-71
2023/08/05 13:00:53;;;;;;;11.50;5.65;;;;;;;;;;4997098;28;25125;-71
2023/08/05 13:03:19;;;;;;;10.48;5.18;;;;;;;;;;5006656;28;25053;-72
2023/08/05 13:05:45;;;;;;;9.00;6.00;;;;;;;;;;4999159;28;25060;-69
2023/08/05 13:08:11;;;;;;;7.30;5.10;;;;;;;;;;5002350;28;25082;-72
2023/08/05 13:10:39;;;;;;;9.10;5.32;;;;;;;;;;5000939;28;25106;-72
2023/08/05 13:13:05;;;;;;;8.48;4.60;;;;;;;;;;4987575;28;26164;-71
2023/08/05 13:15:31;;;;;;;6.22;3.28;;;;;;;;;;4991655;28;25140;-72
2023/08/05 13:17:57;;;;;;;9.25;3.53;;;;;;;;;;4984323;28;25060;-72
2023/08/05 13:20:23;;;;;;;5.57;3.30;;;;;;;;;;5002875;28;25060;-72
2023/08/05 13:22:49;;;;;;;10.32;4.28;;;;;;;;;;4994346;28;25119;-71
2023/08/05 13:25:15;;;;;;;5.07;3.75;;;;;;;;;;5003472;28;25150;-72
2023/08/05 13:27:41;;;;;;;5.32;3.60;;;;;;;;;;4989363;28;25096;-70
2023/08/05 13:30:08;;;;;;;5.03;3.10;;;;;;;;;;4991976;28;25147;-72
2023/08/05 13:32:34;;;;;;;5.40;3.40;;;;;;;;;;4986423;28;25112;-71
2023/08/05 13:35:00;;;;;;;9.55;3.63;;;;;;;;;;4998643;28;25094;-72
2023/08/05 13:37:25;;;;;;;9.05;3.58;;;;;;;;;;4985696;28;25071;-72
2023/08/05 13:39:51;;;;;;;8.10;4.38;;;;;;;;;;5001187;28;25085;-72
2023/08/05 13:42:17;;;;;;;7.20;3.80;;;;;;;;;;4992215;28;25073;-72
2023/08/05 13:44:44;;;;;;;5.47;4.03;;;;;;;;;;5004732;28;25049;-71
2023/08/05 13:47:09;;;;;;;6.88;4.15;;;;;;;;;;5000896;28;25060;-70
2023/08/05 13:49:35;;;;;;;9.43;4.35;;;;;;;;;;5002094;28;25091;-73
2023/08/05 13:52:02;;;;;;;8.88;4.70;;;;;;;;;;4999231;28;25050;-73
2023/08/05 13:54:28;;;;;;;9.68;5.55;;;;;;;;;;4985140;28;25054;-73
2023/08/05 13:56:54;;;;;;;8.65;4.82;;;;;;;;;;4992419;28;25166;-73
2023/08/05 13:59:20;;;;;;;9.43;5.57;;;;;;;;;;4994453;28;25053;-71
2023/08/05 14:01:46;;;;;;;12.82;5.00;;;;;;;;;;4996077;28;25057;-72
2023/08/05 14:04:12;;;;;;;11.40;5.47;;;;;;;;;;4983939;28;25057;-72
2023/08/05 14:06:38;;;;;;;9.65;4.50;;;;;;;;;;4988426;28;25098;-72
2023/08/05 14:09:08;;;;;;;7.75;4.35;;;;;;;;;;5003607;28;25055;-70
2023/08/05 14:11:37;;;;;;;7.47;4.43;;;;;;;;;;4989410;28;25051;-71
2023/08/05 14:14:03;;;;;;;7.22;4.03;;;;;;;;;;4997336;28;25154;-73
2023/08/05 14:16:29;;;;;;;9.65;4.25;;;;;;;;;;4990917;28;25073;-72
2023/08/05 14:18:55;;;;;;;6.70;3.80;;;;;;;;;;4998181;28;25141;-73
2023/08/05 14:21:21;;;;;;;8.02;4.28;;;;;;;;;;4994509;28;25062;-71
2023/08/05 14:23:47;;;;;;;8.25;3.95;;;;;;;;;;5002731;28;25146;-72
2023/08/05 14:26:13;;;;;;;7.65;3.95;;;;;;;;;;4996677;28;25076;-72
2023/08/05 14:28:39;;;;;;;9.32;4.40;;;;;;;;;;5008723;28;25139;-73
2023/08/05 14:31:06;;;;;;;7.47;4.18;;;;;;;;;;5014200;28;25088;-71
2023/08/05 14:33:32;;;;;;;6.07;3.53;;;;;;;;;;5029418;28;25100;-71